sensor_id;sensor_type;location;lat;lon;timestamp;temperature;humidity
55673;DHT22;41554;45.366;20.400;2022-07-23T00:44:27;614.80;1715.20
55673;DHT22;41554;45.366;20.400;2022-07-23T00:46:58;614.80;1715.20
55673;DHT22;41554;45.366;20.400;2022-07-23T00:49:26;614.90;1689.60
55673;DHT22;41554;45.366;20.400;2022-07-23T00:51:53;614.70;1715.20
55673;DHT22;41554;45.366;20.400;2022-07-23T00:54:19;614.50;1766.40
55673;DHT22;41554;45.366;20.400;2022-07-23T00:56:47;614.60;1766.40
55673;DHT22;41554;45.366;20.400;2022-07-23T05:00:27;615.00;2227.20
55673;DHT22;41554;45.366;20.400;2022-07-23T05:02:52;615.00;2252.80
55673;DHT22;41554;45.366;20.400;2022-07-23T05:05:18;615.10;2227.20
55673;DHT22;41554;45.366;20.400;2022-07-23T05:07:44;615.20;2201.60
55673;DHT22;41554;45.366;20.400;2022-07-23T06:25:38;717.70;1740.80
55673;DHT22;41554;45.366;20.400;2022-07-23T07:09:28;742.90;1536.00
55673;DHT22;41554;45.366;20.400;2022-07-23T07:11:54;742.80;1536.00
55673;DHT22;41554;45.366;20.400;2022-07-23T07:14:20;742.90;1510.40
55673;DHT22;41554;45.366;20.400;2022-07-23T07:16:46;743.00;1510.40
55673;DHT22;41554;45.366;20.400;2022-07-23T07:19:12;743.10;1510.40
55673;DHT22;41554;45.366;20.400;2022-07-23T07:21:38;743.20;1510.40
55673;DHT22;41554;45.366;20.400;2022-07-23T09:17:10;845.30;1152.00
55673;DHT22;41554;45.366;20.400;2022-07-23T09:19:36;845.10;1152.00
55673;DHT22;41554;45.366;20.400;2022-07-23T09:22:24;845.20;1126.40
55673;DHT22;41554;45.366;20.400;2022-07-23T09:25:08;845.20;1152.00
55673;DHT22;41554;45.366;20.400;2022-07-23T09:27:57;845.40;1100.80
55673;DHT22;41554;45.366;20.400;2022-07-23T09:30:27;845.50;1024.00
55673;DHT22;41554;45.366;20.400;2022-07-23T09:33:15;845.50;1024.00
55673;DHT22;41554;45.366;20.400;2022-07-23T09:35:55;845.70;1024.00
55673;DHT22;41554;45.366;20.400;2022-07-23T09:38:25;870.40;1024.00
55673;DHT22;41554;45.366;20.400;2022-07-23T09:41:10;870.40;998.40
55673;DHT22;41554;45.366;20.400;2022-07-23T09:43:36;870.50;998.40
55673;DHT22;41554;45.366;20.400;2022-07-23T09:46:25;870.50;998.40
55673;DHT22;41554;45.366;20.400;2022-07-23T09:48:55;870.70;1024.00
55673;DHT22;41554;45.366;20.400;2022-07-23T09:51:24;870.80;998.40
55673;DHT22;41554;45.366;20.400;2022-07-23T09:53:56;870.70;972.80
55673;DHT22;41554;45.366;20.400;2022-07-23T09:56:22;870.60;972.80
55673;DHT22;41554;45.366;20.400;2022-07-23T09:58:50;870.50;998.40
55673;DHT22;41554;45.366;20.400;2022-07-23T10:01:17;870.50;998.40
55673;DHT22;41554;45.366;20.400;2022-07-23T10:03:45;870.40;998.40
55673;DHT22;41554;45.366;20.400;2022-07-23T10:06:13;845.70;1024.00
55673;DHT22;41554;45.366;20.400;2022-07-23T10:08:44;870.40;1024.00
55673;DHT22;41554;45.366;20.400;2022-07-23T10:11:12;870.50;947.20
55673;DHT22;41554;45.366;20.400;2022-07-23T10:13:40;870.50;998.40
55673;DHT22;41554;45.366;20.400;2022-07-23T10:16:12;870.60;972.80
55673;DHT22;41554;45.366;20.400;2022-07-23T10:18:38;870.60;998.40
55673;DHT22;41554;45.366;20.400;2022-07-23T10:21:07;870.60;998.40
55673;DHT22;41554;45.366;20.400;2022-07-23T10:26:15;870.60;1024.00
55673;DHT22;41554;45.366;20.400;2022-07-23T10:29:13;870.60;998.40
55673;DHT22;41554;45.366;20.400;2022-07-23T10:31:56;870.70;972.80
55673;DHT22;41554;45.366;20.400;2022-07-23T10:39:39;870.90;972.80
55673;DHT22;41554;45.366;20.400;2022-07-23T10:42:16;870.90;972.80
55673;DHT22;41554;45.366;20.400;2022-07-23T10:44:46;871.00;947.20
55673;DHT22;41554;45.366;20.400;2022-07-23T10:47:21;871.00;972.80
55673;DHT22;41554;45.366;20.400;2022-07-23T10:49:47;871.10;998.40
55673;DHT22;41554;45.366;20.400;2022-07-23T10:52:24;871.10;998.40
55673;DHT22;41554;45.366;20.400;2022-07-23T10:54:53;871.10;998.40
55673;DHT22;41554;45.366;20.400;2022-07-23T10:57:22;871.20;972.80
55673;DHT22;41554;45.366;20.400;2022-07-23T11:02:35;871.30;998.40
55673;DHT22;41554;45.366;20.400;2022-07-23T11:05:10;896.00;998.40
55673;DHT22;41554;45.366;20.400;2022-07-23T11:10:39;896.00;1024.00
55673;DHT22;41554;45.366;20.400;2022-07-23T11:49:27;921.60;947.20
55673;DHT22;41554;45.366;20.400;2022-07-23T11:52:14;896.80;896.00
55673;DHT22;41554;45.366;20.400;2022-07-23T11:57:45;896.90;921.60
55673;DHT22;41554;45.366;20.400;2022-07-23T12:02:42;921.60;921.60
55673;DHT22;41554;45.366;20.400;2022-07-23T12:05:11;921.70;870.40
55673;DHT22;41554;45.366;20.400;2022-07-23T12:07:42;921.70;896.00
55673;DHT22;41554;45.366;20.400;2022-07-23T12:10:29;921.80;896.00
55673;DHT22;41554;45.366;20.400;2022-07-23T12:13:00;921.90;921.60
55673;DHT22;41554;45.366;20.400;2022-07-23T12:15:28;921.80;896.00
55673;DHT22;41554;45.366;20.400;2022-07-23T12:17:56;921.70;896.00
55673;DHT22;41554;45.366;20.400;2022-07-23T12:20:27;921.80;921.60
55673;DHT22;41554;45.366;20.400;2022-07-23T12:22:56;921.80;896.00
55673;DHT22;41554;45.366;20.400;2022-07-23T12:25:25;921.90;921.60
55673;DHT22;41554;45.366;20.400;2022-07-23T12:28:09;921.90;921.60
55673;DHT22;41554;45.366;20.400;2022-07-23T12:30:42;921.90;921.60
55673;DHT22;41554;45.366;20.400;2022-07-23T12:33:11;922.00;947.20
55673;DHT22;41554;45.366;20.400;2022-07-23T12:38:05;922.20;896.00
55673;DHT22;41554;45.366;20.400;2022-07-23T12:43:05;922.20;896.00
55673;DHT22;41554;45.366;20.400;2022-07-23T12:48:39;922.10;896.00
55673;DHT22;41554;45.366;20.400;2022-07-23T12:51:14;922.10;896.00
55673;DHT22;41554;45.366;20.400;2022-07-23T12:53:48;922.20;870.40
55673;DHT22;41554;45.366;20.400;2022-07-23T12:56:19;922.20;870.40
55673;DHT22;41554;45.366;20.400;2022-07-23T13:06:21;922.30;870.40
55673;DHT22;41554;45.366;20.400;2022-07-23T13:08:47;922.30;870.40
55673;DHT22;41554;45.366;20.400;2022-07-23T13:11:12;922.30;1100.80
55673;DHT22;41554;45.366;20.400;2022-07-23T13:13:38;922.40;870.40
55673;DHT22;41554;45.366;20.400;2022-07-23T13:45:22;948.00;793.60
55673;DHT22;41554;45.366;20.400;2022-07-23T13:47:48;948.00;793.60
55673;DHT22;41554;45.366;20.400;2022-07-23T13:50:13;948.00;793.60
55673;DHT22;41554;45.366;20.400;2022-07-23T13:52:42;948.10;793.60
55673;DHT22;41554;45.366;20.400;2022-07-23T13:55:08;972.80;793.60
55673;DHT22;41554;45.366;20.400;2022-07-23T13:57:34;972.90;819.20
55673;DHT22;41554;45.366;20.400;2022-07-23T14:00:00;972.90;844.80
55673;DHT22;41554;45.366;20.400;2022-07-23T14:02:26;972.90;819.20
55673;DHT22;41554;45.366;20.400;2022-07-23T14:04:52;972.90;844.80
55673;DHT22;41554;45.366;20.400;2022-07-23T14:07:18;973.20;819.20
55673;DHT22;41554;45.366;20.400;2022-07-23T14:09:44;973.10;793.60
55673;DHT22;41554;45.366;20.400;2022-07-23T14:12:10;973.20;793.60
55673;DHT22;41554;45.366;20.400;2022-07-23T14:14:36;973.30;819.20
55673;DHT22;41554;45.366;20.400;2022-07-23T14:17:02;973.10;844.80
55673;DHT22;41554;45.366;20.400;2022-07-23T14:19:29;973.20;844.80
55673;DHT22;41554;45.366;20.400;2022-07-23T14:21:54;973.20;870.40
55673;DHT22;41554;45.366;20.400;2022-07-23T14:24:20;973.20;844.80
55673;DHT22;41554;45.366;20.400;2022-07-23T14:26:46;973.10;844.80
55673;DHT22;41554;45.366;20.400;2022-07-23T14:29:12;973.10;870.40
55673;DHT22;41554;45.366;20.400;2022-07-23T14:31:37;973.10;870.40
55673;DHT22;41554;45.366;20.400;2022-07-23T14:34:03;973.20;844.80
55673;DHT22;41554;45.366;20.400;2022-07-23T14:36:29;973.10;844.80
55673;DHT22;41554;45.366;20.400;2022-07-23T14:38:55;973.20;844.80
55673;DHT22;41554;45.366;20.400;2022-07-23T14:41:20;973.10;844.80
55673;DHT22;41554;45.366;20.400;2022-07-23T14:43:46;973.10;870.40
55673;DHT22;41554;45.366;20.400;2022-07-23T14:46:12;973.10;870.40
55673;DHT22;41554;45.366;20.400;2022-07-23T14:48:38;973.10;870.40
55673;DHT22;41554;45.366;20.400;2022-07-23T14:51:04;973.20;870.40
55673;DHT22;41554;45.366;20.400;2022-07-23T14:53:30;973.10;870.40
55673;DHT22;41554;45.366;20.400;2022-07-23T14:55:56;973.20;870.40
55673;DHT22;41554;45.366;20.400;2022-07-23T14:58:23;973.60;819.20
55673;DHT22;41554;45.366;20.400;2022-07-23T15:00:50;973.40;819.20
55673;DHT22;41554;45.366;20.400;2022-07-23T15:03:15;973.40;819.20
55673;DHT22;41554;45.366;20.400;2022-07-23T15:05:42;973.30;844.80
55673;DHT22;41554;45.366;20.400;2022-07-23T15:08:08;973.40;870.40
55673;DHT22;41554;45.366;20.400;2022-07-23T15:10:34;973.50;844.80
55673;DHT22;41554;45.366;20.400;2022-07-23T15:13:00;973.40;844.80
55673;DHT22;41554;45.366;20.400;2022-07-23T15:15:25;973.50;819.20
55673;DHT22;41554;45.366;20.400;2022-07-23T15:17:51;973.50;819.20
55673;DHT22;41554;45.366;20.400;2022-07-23T15:20:17;973.40;819.20
55673;DHT22;41554;45.366;20.400;2022-07-23T15:22:43;973.40;819.20
55673;DHT22;41554;45.366;20.400;2022-07-23T15:25:11;973.30;819.20
55673;DHT22;41554;45.366;20.400;2022-07-23T15:27:37;973.30;819.20
55673;DHT22;41554;45.366;20.400;2022-07-23T15:30:04;973.30;844.80
55673;DHT22;41554;45.366;20.400;2022-07-23T15:32:30;973.20;819.20
55673;DHT22;41554;45.366;20.400;2022-07-23T15:34:56;973.30;844.80
55673;DHT22;41554;45.366;20.400;2022-07-23T15:37:22;973.20;819.20
55673;DHT22;41554;45.366;20.400;2022-07-23T15:39:51;973.30;819.20
55673;DHT22;41554;45.366;20.400;2022-07-23T15:42:17;973.00;844.80
55673;DHT22;41554;45.366;20.400;2022-07-23T15:44:43;973.00;844.80
55673;DHT22;41554;45.366;20.400;2022-07-23T15:47:14;973.10;870.40
55673;DHT22;41554;45.366;20.400;2022-07-23T15:49:40;972.90;870.40
55673;DHT22;41554;45.366;20.400;2022-07-23T15:52:06;973.00;870.40
55673;DHT22;41554;45.366;20.400;2022-07-23T15:54:32;973.00;870.40
55673;DHT22;41554;45.366;20.400;2022-07-23T15:56:57;972.90;870.40
55673;DHT22;41554;45.366;20.400;2022-07-23T15:59:23;972.80;870.40
55673;DHT22;41554;45.366;20.400;2022-07-23T16:01:49;948.00;870.40
55673;DHT22;41554;45.366;20.400;2022-07-23T16:04:15;948.00;870.40
55673;DHT22;41554;45.366;20.400;2022-07-23T16:06:40;947.90;870.40
55673;DHT22;41554;45.366;20.400;2022-07-23T16:09:07;947.80;870.40
55673;DHT22;41554;45.366;20.400;2022-07-23T16:11:33;947.70;896.00
55673;DHT22;41554;45.366;20.400;2022-07-23T16:13:59;947.80;870.40
55673;DHT22;41554;45.366;20.400;2022-07-23T16:16:25;947.80;870.40
55673;DHT22;41554;45.366;20.400;2022-07-23T16:18:52;947.70;870.40
55673;DHT22;41554;45.366;20.400;2022-07-23T16:21:18;947.70;870.40
55673;DHT22;41554;45.366;20.400;2022-07-23T16:23:44;947.60;870.40
55673;DHT22;41554;45.366;20.400;2022-07-23T16:26:10;947.60;896.00
55673;DHT22;41554;45.366;20.400;2022-07-23T16:28:36;947.50;870.40
55673;DHT22;41554;45.366;20.400;2022-07-23T16:31:02;947.50;896.00
55673;DHT22;41554;45.366;20.400;2022-07-23T16:33:28;947.50;896.00
55673;DHT22;41554;45.366;20.400;2022-07-23T16:35:54;947.40;896.00
55673;DHT22;41554;45.366;20.400;2022-07-23T16:38:19;947.30;870.40
55673;DHT22;41554;45.366;20.400;2022-07-23T16:40:47;947.20;870.40
55673;DHT22;41554;45.366;20.400;2022-07-23T16:43:13;947.20;896.00
55673;DHT22;41554;45.366;20.400;2022-07-23T16:45:39;922.50;870.40
55673;DHT22;41554;45.366;20.400;2022-07-23T16:48:05;922.30;870.40
55673;DHT22;41554;45.366;20.400;2022-07-23T16:50:31;922.30;896.00
55673;DHT22;41554;45.366;20.400;2022-07-23T16:52:58;922.30;870.40
55673;DHT22;41554;45.366;20.400;2022-07-23T16:55:23;922.20;896.00
55673;DHT22;41554;45.366;20.400;2022-07-23T16:57:49;922.30;921.60
55673;DHT22;41554;45.366;20.400;2022-07-23T17:00:15;922.20;921.60
55673;DHT22;41554;45.366;20.400;2022-07-23T17:02:41;922.20;921.60
55673;DHT22;41554;45.366;20.400;2022-07-23T17:05:08;922.10;921.60
55673;DHT22;41554;45.366;20.400;2022-07-23T17:07:37;922.10;921.60
55673;DHT22;41554;45.366;20.400;2022-07-23T17:10:03;922.10;947.20
55673;DHT22;41554;45.366;20.400;2022-07-23T17:12:29;921.80;972.80
55673;DHT22;41554;45.366;20.400;2022-07-23T17:14:55;921.90;972.80
55673;DHT22;41554;45.366;20.400;2022-07-23T17:17:20;921.60;972.80
55673;DHT22;41554;45.366;20.400;2022-07-23T17:29:31;896.50;998.40
55673;DHT22;41554;45.366;20.400;2022-07-23T17:31:57;896.10;998.40
55673;DHT22;41554;45.366;20.400;2022-07-23T17:34:23;896.00;1024.00
55673;DHT22;41554;45.366;20.400;2022-07-23T17:36:49;871.30;1024.00
55673;DHT22;41554;45.366;20.400;2022-07-23T17:39:17;871.20;998.40
55673;DHT22;41554;45.366;20.400;2022-07-23T17:41:43;871.10;1049.60
55673;DHT22;41554;45.366;20.400;2022-07-23T17:44:16;870.90;1049.60
55673;DHT22;41554;45.366;20.400;2022-07-23T17:46:42;870.80;1075.20
55673;DHT22;41554;45.366;20.400;2022-07-23T17:49:07;870.70;1075.20
55673;DHT22;41554;45.366;20.400;2022-07-23T17:51:34;870.70;1228.80
55673;DHT22;41554;45.366;20.400;2022-07-23T17:54:00;870.40;1305.60
55673;DHT22;41554;45.366;20.400;2022-07-23T17:56:26;870.50;1152.00
55673;DHT22;41554;45.366;20.400;2022-07-23T17:58:51;845.50;1177.60
55673;DHT22;41554;45.366;20.400;2022-07-23T18:01:17;845.40;1203.20
55673;DHT22;41554;45.366;20.400;2022-07-23T18:03:43;845.40;1203.20
55673;DHT22;41554;45.366;20.400;2022-07-23T18:06:12;845.10;1203.20
55673;DHT22;41554;45.366;20.400;2022-07-23T18:13:31;844.90;1254.40
55673;DHT22;41554;45.366;20.400;2022-07-23T18:15:56;820.00;1228.80
55673;DHT22;41554;45.366;20.400;2022-07-23T18:18:23;819.80;1228.80
55673;DHT22;41554;45.366;20.400;2022-07-23T18:20:49;819.80;1228.80
55673;DHT22;41554;45.366;20.400;2022-07-23T18:23:15;819.60;1228.80
55673;DHT22;41554;45.366;20.400;2022-07-23T18:25:41;819.50;1254.40
55673;DHT22;41554;45.366;20.400;2022-07-23T18:28:07;819.40;1280.00
55673;DHT22;41554;45.366;20.400;2022-07-23T18:30:32;819.30;1280.00
55673;DHT22;41554;45.366;20.400;2022-07-23T18:32:58;819.30;1280.00
55673;DHT22;41554;45.366;20.400;2022-07-23T18:35:24;819.20;1280.00
55673;DHT22;41554;45.366;20.400;2022-07-23T18:37:51;819.40;1280.00
55673;DHT22;41554;45.366;20.400;2022-07-23T18:40:16;819.30;1305.60
55673;DHT22;41554;45.366;20.400;2022-07-23T18:47:36;819.20;1305.60
55673;DHT22;41554;45.366;20.400;2022-07-23T18:50:04;794.40;1305.60
55673;DHT22;41554;45.366;20.400;2022-07-23T18:52:30;794.20;1305.60
55673;DHT22;41554;45.366;20.400;2022-07-23T18:54:56;794.10;1331.20
55673;DHT22;41554;45.366;20.400;2022-07-23T20:29:58;768.20;1484.80
55673;DHT22;41554;45.366;20.400;2022-07-23T20:32:23;768.00;1510.40
55673;DHT22;41554;45.366;20.400;2022-07-23T21:06:29;742.50;1587.20
55673;DHT22;41554;45.366;20.400;2022-07-23T21:08:54;742.50;1510.40
55673;DHT22;41554;45.366;20.400;2022-07-23T21:11:20;742.50;1484.80
55673;DHT22;41554;45.366;20.400;2022-07-23T21:13:46;742.50;1510.40
55673;DHT22;41554;45.366;20.400;2022-07-23T21:16:13;742.50;1510.40
55673;DHT22;41554;45.366;20.400;2022-07-23T21:18:39;742.40;1536.00
55673;DHT22;41554;45.366;20.400;2022-07-23T21:23:35;717.70;1561.60
55673;DHT22;41554;45.366;20.400;2022-07-23T21:26:01;717.60;1587.20
55673;DHT22;41554;45.366;20.400;2022-07-23T21:28:27;717.40;1587.20
55673;DHT22;41554;45.366;20.400;2022-07-23T21:30:52;717.20;1587.20
